Time;durP1;ratioP1;P1;durP2;ratioP2;P2;SDS_P1;SDS_P2;PMS_P1;PMS_P2;Temp;Humidity;BMP_temperature;BMP_pressure;BME280_temperature;BME280_humidity;BME280_pressure;Samples;Min_cycle;Max_cycle;Signal;HPM_P1;HPM_P2
2022/02/12 00:01:13;;;;;;;60.65;45.08;;;;;;;;;;4808279;29;92906;-71
2022/02/12 00:03:42;;;;;;;54.75;44.38;;;;;;;;;;4810958;29;92167;-71
2022/02/12 00:06:13;;;;;;;57.78;46.42;;;;;;;;;;4810827;29;94270;-72
2022/02/12 00:08:42;;;;;;;63.65;47.10;;;;;;;;;;4794443;29;91982;-71
2022/02/12 00:11:10;;;;;;;65.50;48.42;;;;;;;;;;4807418;29;92334;-72
2022/02/12 00:13:39;;;;;;;54.33;45.80;;;;;;;;;;4810382;29;92168;-72
2022/02/12 00:16:08;;;;;;;58.13;44.92;;;;;;;;;;4810274;29;92352;-72
2022/02/12 00:18:38;;;;;;;61.40;48.33;;;;;;;;;;4797297;29;93722;-71
2022/02/12 00:21:07;;;;;;;59.58;45.65;;;;;;;;;;4810841;29;91890;-71
2022/02/12 00:23:36;;;;;;;62.17;49.00;;;;;;;;;;4810524;29;92103;-71
2022/02/12 00:26:10;;;;;;;;;;;;;;;;;;4808450;29;96110;-71
2022/02/12 00:28:39;;;;;;;54.78;45.30;;;;;;;;;;4811385;29;95384;-71
2022/02/12 00:31:10;;;;;;;58.25;45.03;;;;;;;;;;4810653;29;92152;-71
2022/02/12 00:33:38;;;;;;;57.10;42.80;;;;;;;;;;4810438;29;92051;-73
2022/02/12 00:36:07;;;;;;;56.83;45.22;;;;;;;;;;4810067;29;93886;-71
2022/02/12 00:38:35;;;;;;;59.28;46.03;;;;;;;;;;4810424;29;93695;-71
2022/02/12 00:41:05;;;;;;;61.85;46.85;;;;;;;;;;4810643;29;91925;-71
2022/02/12 00:43:33;;;;;;;77.22;45.63;;;;;;;;;;4810805;29;91298;-71
2022/02/12 00:46:01;;;;;;;57.45;48.25;;;;;;;;;;4793643;29;94701;-71
2022/02/12 00:48:30;;;;;;;55.35;43.72;;;;;;;;;;4809215;29;94756;-72
2022/02/12 00:50:59;;;;;;;61.35;45.25;;;;;;;;;;4794640;29;92929;-73
2022/02/12 00:53:27;;;;;;;62.78;46.95;;;;;;;;;;4810717;29;92048;-71
2022/02/12 00:55:56;;;;;;;61.58;46.88;;;;;;;;;;4809546;29;94907;-72
2022/02/12 00:58:23;;;;;;;54.10;44.38;;;;;;;;;;4810203;29;94881;-73
2022/02/12 01:00:52;;;;;;;62.55;48.47;;;;;;;;;;4809259;29;93526;-71
2022/02/12 01:03:21;;;;;;;52.67;43.95;;;;;;;;;;4812822;29;91910;-72
2022/02/12 01:05:50;;;;;;;63.40;45.88;;;;;;;;;;4824946;29;94640;-71
2022/02/12 01:08:17;;;;;;;66.32;49.28;;;;;;;;;;4829267;29;95348;-71
2022/02/12 01:10:45;;;;;;;60.13;42.97;;;;;;;;;;4828515;29;91989;-73
2022/02/12 01:13:14;;;;;;;61.33;47.13;;;;;;;;;;4829248;29;91864;-73
2022/02/12 01:15:41;;;;;;;54.95;45.42;;;;;;;;;;4828201;29;94970;-72
2022/02/12 01:18:09;;;;;;;60.55;48.03;;;;;;;;;;4812317;29;94983;-72
2022/02/12 01:20:39;;;;;;;60.22;46.42;;;;;;;;;;4828784;29;92161;-72
2022/02/12 01:23:08;;;;;;;65.32;48.13;;;;;;;;;;4828746;29;92092;-72
2022/02/12 01:25:36;;;;;;;61.75;45.95;;;;;;;;;;4828517;29;94502;-72
2022/02/12 01:28:06;;;;;;;63.30;51.45;;;;;;;;;;4828009;29;94337;-71
2022/02/12 01:30:34;;;;;;;57.95;46.17;;;;;;;;;;4828137;29;91708;-70
2022/02/12 01:33:02;;;;;;;63.90;47.28;;;;;;;;;;4827194;29;91342;-71
2022/02/12 01:35:31;;;;;;;60.88;48.28;;;;;;;;;;4826627;29;94905;-71
2022/02/12 01:38:00;;;;;;;65.85;48.92;;;;;;;;;;4826787;29;94740;-71
2022/02/12 01:40:27;;;;;;;60.22;48.88;;;;;;;;;;4827837;29;92859;-71
2022/02/12 01:42:56;;;;;;;63.05;50.45;;;;;;;;;;4828249;29;92017;-70
2022/02/12 01:45:25;;;;;;;60.92;46.67;;;;;;;;;;4828063;29;94941;-70
2022/02/12 01:47:53;;;;;;;59.90;48.80;;;;;;;;;;4828124;29;93178;-70
2022/02/12 01:50:21;;;;;;;68.88;51.53;;;;;;;;;;4826862;29;91922;-70
2022/02/12 01:52:49;;;;;;;64.65;51.35;;;;;;;;;;4827120;29;91997;-71
2022/02/12 01:55:17;;;;;;;69.03;52.22;;;;;;;;;;4827433;29;94200;-71
2022/02/12 01:57:45;;;;;;;65.60;54.53;;;;;;;;;;4828453;29;94502;-70
2022/02/12 02:00:16;;;;;;;66.85;50.15;;;;;;;;;;4827757;29;92134;-70
2022/02/12 02:02:45;;;;;;;69.97;54.80;;;;;;;;;;4827502;29;92101;-70
2022/02/12 02:05:14;;;;;;;65.68;52.25;;;;;;;;;;4826821;29;95228;-70
2022/02/12 02:07:42;;;;;;;73.07;53.38;;;;;;;;;;4827152;29;94940;-71
2022/02/12 02:10:12;;;;;;;73.93;54.35;;;;;;;;;;4827796;29;92006;-71
2022/02/12 02:12:39;;;;;;;69.72;54.25;;;;;;;;;;4828046;29;91943;-70
2022/02/12 02:15:09;;;;;;;72.40;54.65;;;;;;;;;;4827388;29;93279;-70
2022/02/12 02:17:36;;;;;;;70.40;55.47;;;;;;;;;;4827257;29;94164;-70
2022/02/12 02:20:06;;;;;;;75.00;54.40;;;;;;;;;;4828309;29;91713;-70
2022/02/12 02:22:48;;;;;;;80.57;54.20;;;;;;;;;;4827693;29;91207;-70
2022/02/12 02:25:15;;;;;;;73.78;53.28;;;;;;;;;;4827662;29;94911;-70
2022/02/12 02:27:44;;;;;;;74.72;57.55;;;;;;;;;;4811631;29;94207;-71
2022/02/12 02:30:14;;;;;;;66.22;53.70;;;;;;;;;;4827678;29;92674;-71
2022/02/12 02:32:44;;;;;;;65.72;51.13;;;;;;;;;;4827107;29;91912;-71
2022/02/12 02:35:18;;;;;;;73.97;54.67;;;;;;;;;;4827720;29;93577;-71
2022/02/12 02:37:47;;;;;;;71.65;52.22;;;;;;;;;;4827102;29;94402;-71
2022/02/12 02:40:17;;;;;;;65.72;50.67;;;;;;;;;;4824916;29;92380;-71
2022/02/12 02:42:46;;;;;;;62.88;47.45;;;;;;;;;;4826289;29;92144;-71
2022/02/12 02:45:16;;;;;;;61.35;44.65;;;;;;;;;;4824571;29;94087;-71
2022/02/12 02:47:43;;;;;;;51.95;38.40;;;;;;;;;;4827095;29;94351;-71
2022/02/12 02:56:01;;;;;;;42.38;26.67;;;;;;;;;;4827181;29;95582;-72
2022/02/12 02:58:41;;;;;;;35.75;27.38;;;;;;;;;;4812284;29;95512;-71
2022/02/12 03:01:14;;;;;;;45.50;24.42;;;;;;;;;;4826622;29;92024;-71
2022/02/12 03:03:45;;;;;;;28.70;22.55;;;;;;;;;;4827102;29;92031;-71
2022/02/12 03:06:14;;;;;;;37.13;21.95;;;;;;;;;;4826933;29;95838;-71
2022/02/12 03:08:43;;;;;;;24.73;18.77;;;;;;;;;;4812026;29;94104;-71
2022/02/12 03:11:12;;;;;;;24.38;19.23;;;;;;;;;;4827437;29;91947;-71
2022/02/12 03:13:41;;;;;;;15.45;12.00;;;;;;;;;;4827680;29;91275;-71
2022/02/12 03:16:09;;;;;;;18.90;12.00;;;;;;;;;;4826529;29;95037;-71
2022/02/12 03:18:39;;;;;;;13.32;9.60;;;;;;;;;;4827073;29;94610;-71
2022/02/12 03:21:08;;;;;;;10.38;7.55;;;;;;;;;;4811399;29;92800;-71
2022/02/12 03:23:37;;;;;;;8.20;5.20;;;;;;;;;;4828286;29;91969;-71
2022/02/12 03:26:05;;;;;;;4.32;3.60;;;;;;;;;;4827319;29;95221;-70
2022/02/12 03:28:32;;;;;;;5.57;3.33;;;;;;;;;;4827232;29;94087;-71
2022/02/12 03:31:01;;;;;;;4.28;2.60;;;;;;;;;;4826994;29;92714;-71
2022/02/12 03:33:29;;;;;;;3.88;1.98;;;;;;;;;;4828060;29;91940;-72
2022/02/12 03:35:57;;;;;;;4.53;1.98;;;;;;;;;;4830294;29;94631;-72
2022/02/12 03:38:31;;;;;;;1.73;1.63;;;;;;;;;;4829247;29;93829;-72
2022/02/12 03:41:00;;;;;;;4.30;2.03;;;;;;;;;;4830927;29;92066;-72
2022/02/12 03:43:30;;;;;;;4.88;2.85;;;;;;;;;;4830934;29;91925;-72
2022/02/12 03:46:00;;;;;;;4.43;1.90;;;;;;;;;;4821251;29;95400;-72
2022/02/12 03:48:28;;;;;;;4.65;2.85;;;;;;;;;;4830351;29;94896;-72
2022/02/12 03:50:56;;;;;;;2.80;2.08;;;;;;;;;;4814592;29;91884;-72
2022/02/12 03:53:25;;;;;;;3.88;2.10;;;;;;;;;;4830753;29;92033;-72
2022/02/12 03:55:53;;;;;;;5.65;1.92;;;;;;;;;;4830349;29;94773;-71
2022/02/12 03:58:22;;;;;;;8.10;2.90;;;;;;;;;;4829806;29;94458;-72
2022/02/12 04:00:50;;;;;;;5.80;2.10;;;;;;;;;;4829919;29;91800;-71
2022/02/12 04:03:20;;;;;;;7.15;2.25;;;;;;;;;;4830641;29;91272;-71
2022/02/12 04:05:48;;;;;;;3.20;2.25;;;;;;;;;;4830217;29;94458;-71
2022/02/12 04:08:18;;;;;;;3.45;1.85;;;;;;;;;;4828378;29;94185;-72
2022/02/12 04:10:48;;;;;;;2.70;2.45;;;;;;;;;;4830412;29;92600;-73
2022/02/12 04:13:20;;;;;;;3.95;2.13;;;;;;;;;;4813878;29;92012;-72
2022/02/12 04:15:48;;;;;;;3.13;2.10;;;;;;;;;;4830009;29;94619;-73
2022/02/12 04:18:17;;;;;;;4.20;2.33;;;;;;;;;;4813809;29;93882;-72
2022/02/12 04:20:44;;;;;;;11.20;1.80;;;;;;;;;;4830367;29;92086;-72
2022/02/12 04:23:13;;;;;;;4.20;1.80;;;;;;;;;;4830559;29;91908;-72
2022/02/12 04:25:41;;;;;;;3.10;1.67;;;;;;;;;;4830242;29;94714;-72
2022/02/12 04:28:11;;;;;;;3.13;1.40;;;;;;;;;;4830179;29;94539;-72
2022/02/12 04:30:39;;;;;;;1.90;1.80;;;;;;;;;;4829800;29;91862;-71
2022/02/12 04:33:08;;;;;;;16.30;1.90;;;;;;;;;;4814150;29;91886;-71
2022/02/12 04:35:38;;;;;;;2.70;2.00;;;;;;;;;;4829042;29;95853;-71
2022/02/12 04:38:07;;;;;;;5.57;1.58;;;;;;;;;;4829512;29;94315;-71
2022/02/12 04:40:36;;;;;;;3.65;2.65;;;;;;;;;;4829805;29;92120;-71
2022/02/12 04:43:04;;;;;;;4.00;1.50;;;;;;;;;;4813943;29;91966;-71
2022/02/12 04:45:32;;;;;;;3.75;1.65;;;;;;;;;;4812395;29;94872;-72
2022/02/12 04:48:01;;;;;;;3.10;1.65;;;;;;;;;;4829456;29;93513;-72
2022/02/12 04:50:29;;;;;;;4.47;2.20;;;;;;;;;;4829728;29;91883;-69
2022/02/12 04:52:57;;;;;;;1.88;1.67;;;;;;;;;;4830376;29;91075;-70
2022/02/12 04:55:26;;;;;;;2.83;1.40;;;;;;;;;;4829380;29;94567;-70
2022/02/12 04:57:54;;;;;;;6.93;1.58;;;;;;;;;;4829543;29;94401;-70
2022/02/12 05:00:22;;;;;;;2.05;1.95;;;;;;;;;;4828161;29;92860;-70
2022/02/12 05:02:50;;;;;;;2.78;1.48;;;;;;;;;;4828457;29;92067;-70
2022/02/12 05:05:18;;;;;;;6.47;1.83;;;;;;;;;;4829210;29;95008;-70
2022/02/12 05:07:47;;;;;;;3.85;1.48;;;;;;;;;;4812799;29;93377;-73
2022/02/12 05:10:15;;;;;;;3.25;2.33;;;;;;;;;;4829915;29;91691;-71
2022/02/12 05:12:43;;;;;;;1.90;1.67;;;;;;;;;;4811262;29;91985;-71
2022/02/12 05:15:12;;;;;;;3.03;1.70;;;;;;;;;;4823576;29;94494;-70
2022/02/12 05:17:40;;;;;;;5.45;1.58;;;;;;;;;;4829238;29;94545;-71
2022/02/12 05:20:11;;;;;;;1.70;1.60;;;;;;;;;;4828460;29;91943;-71
2022/02/12 05:22:39;;;;;;;4.18;2.08;;;;;;;;;;4828431;29;91843;-71
2022/02/12 05:25:09;;;;;;;7.18;2.30;;;;;;;;;;4828748;29;95595;-71
2022/02/12 05:27:37;;;;;;;6.68;1.75;;;;;;;;;;4827550;29;94915;-71
2022/02/12 05:30:07;;;;;;;2.90;1.70;;;;;;;;;;4828268;29;91857;-71
2022/02/12 05:32:34;;;;;;;5.72;2.10;;;;;;;;;;4828976;29;92022;-71
2022/02/12 05:35:02;;;;;;;7.70;3.13;;;;;;;;;;4827487;29;93695;-73
2022/02/12 05:37:31;;;;;;;3.85;1.90;;;;;;;;;;4812641;29;92679;-71
2022/02/12 05:39:59;;;;;;;7.50;2.20;;;;;;;;;;4829041;29;91955;-70
2022/02/12 05:42:27;;;;;;;4.28;2.08;;;;;;;;;;4828375;29;91221;-69
2022/02/12 05:44:54;;;;;;;6.95;2.30;;;;;;;;;;4825837;29;94621;-71
2022/02/12 05:47:22;;;;;;;6.45;2.65;;;;;;;;;;4812384;29;93104;-71
2022/02/12 05:49:50;;;;;;;1.77;1.67;;;;;;;;;;4828506;29;92960;-70
2022/02/12 05:52:18;;;;;;;5.63;2.42;;;;;;;;;;4818659;29;91807;-70
2022/02/12 05:54:47;;;;;;;3.45;2.30;;;;;;;;;;4828262;29;93150;-71
2022/02/12 05:57:15;;;;;;;3.55;2.15;;;;;;;;;;4827678;29;94503;-70
2022/02/12 05:59:43;;;;;;;5.18;2.03;;;;;;;;;;4812458;29;92028;-73
2022/02/12 06:02:11;;;;;;;3.22;2.58;;;;;;;;;;4812581;29;92077;-73
2022/02/12 06:04:39;;;;;;;2.67;2.08;;;;;;;;;;4829554;29;93160;-73
2022/02/12 06:07:07;;;;;;;3.53;2.13;;;;;;;;;;4829304;29;92739;-75
2022/02/12 06:09:34;;;;;;;2.92;2.05;;;;;;;;;;4829853;29;91675;-73
2022/02/12 06:12:02;;;;;;;1.92;1.60;;;;;;;;;;4797755;29;92126;-71
2022/02/12 06:14:31;;;;;;;7.85;4.15;;;;;;;;;;4831854;29;95813;-73
2022/02/12 06:17:00;;;;;;;4.50;2.38;;;;;;;;;;4827699;29;93474;-73
2022/02/12 06:19:30;;;;;;;9.63;7.00;;;;;;;;;;4827575;29;92367;-73
2022/02/12 06:22:01;;;;;;;16.30;8.85;;;;;;;;;;4828572;29;91851;-73
2022/02/12 06:24:30;;;;;;;16.60;10.68;;;;;;;;;;4827894;29;95179;-74
2022/02/12 06:27:04;;;;;;;21.02;13.30;;;;;;;;;;4827818;29;93969;-74
2022/02/12 06:29:32;;;;;;;18.80;15.30;;;;;;;;;;4829524;29;92068;-74
2022/02/12 06:32:00;;;;;;;23.15;15.55;;;;;;;;;;4828728;29;91263;-73
2022/02/12 06:34:28;;;;;;;24.27;18.67;;;;;;;;;;4828550;29;95260;-74
2022/02/12 06:36:55;;;;;;;25.95;18.05;;;;;;;;;;4826741;29;92536;-74
2022/02/12 06:39:23;;;;;;;22.17;16.40;;;;;;;;;;4827634;29;92896;-74
2022/02/12 06:41:52;;;;;;;22.83;16.02;;;;;;;;;;4828108;29;91756;-73
2022/02/12 06:44:20;;;;;;;23.77;15.65;;;;;;;;;;4827242;29;94727;-73
2022/02/12 06:46:49;;;;;;;22.17;15.98;;;;;;;;;;4827876;29;94327;-73
2022/02/12 06:49:17;;;;;;;20.60;14.65;;;;;;;;;;4828429;29;91989;-74
2022/02/12 06:51:45;;;;;;;20.20;13.88;;;;;;;;;;4825637;29;92084;-73
2022/02/12 06:54:14;;;;;;;18.98;12.00;;;;;;;;;;4825391;29;94346;-79
2022/02/12 06:56:44;;;;;;;18.45;12.20;;;;;;;;;;4826596;29;94131;-82
2022/02/12 06:59:15;;;;;;;18.85;12.30;;;;;;;;;;4813964;29;91914;-82
2022/02/12 07:01:43;;;;;;;18.35;14.10;;;;;;;;;;4827386;29;92046;-78
2022/02/12 07:04:11;;;;;;;28.40;17.33;;;;;;;;;;4813223;29;95672;-78
2022/02/12 07:06:40;;;;;;;25.45;15.95;;;;;;;;;;4828027;29;94990;-78
2022/02/12 07:09:07;;;;;;;22.25;15.45;;;;;;;;;;4828226;29;91780;-78
2022/02/12 07:11:35;;;;;;;15.90;12.10;;;;;;;;;;4832756;29;92014;-78
2022/02/12 07:14:03;;;;;;;18.15;11.95;;;;;;;;;;4839929;29;92547;-82
2022/02/12 07:16:32;;;;;;;20.88;12.20;;;;;;;;;;4845612;29;94243;-81
2022/02/12 07:19:00;;;;;;;15.73;10.98;;;;;;;;;;4843254;29;91854;-81
2022/02/12 07:21:27;;;;;;;14.98;10.23;;;;;;;;;;4844172;29;91422;-82
2022/02/12 07:23:55;;;;;;;13.95;11.45;;;;;;;;;;4842723;29;93598;-81
2022/02/12 07:26:23;;;;;;;11.25;9.70;;;;;;;;;;4812920;29;94007;-80
2022/02/12 07:28:51;;;;;;;11.65;9.30;;;;;;;;;;4842091;29;94782;-79
2022/02/12 07:31:19;;;;;;;15.40;10.00;;;;;;;;;;4817654;29;92152;-80
2022/02/12 07:33:48;;;;;;;15.60;8.80;;;;;;;;;;4819967;29;94697;-79
2022/02/12 07:36:16;;;;;;;17.48;9.75;;;;;;;;;;4822870;29;95130;-80
2022/02/12 07:38:44;;;;;;;17.95;10.90;;;;;;;;;;4822226;29;92014;-73
2022/02/12 07:41:17;;;;;;;17.60;9.70;;;;;;;;;;4839310;29;91998;-82
2022/02/12 07:43:45;;;;;;;20.00;12.05;;;;;;;;;;4839219;29;94068;-77
2022/02/12 07:46:13;;;;;;;18.73;10.18;;;;;;;;;;4822791;29;94409;-80
2022/02/12 07:48:42;;;;;;;12.90;9.65;;;;;;;;;;4820746;29;92045;-83
2022/02/12 07:51:13;;;;;;;12.98;8.13;;;;;;;;;;4838889;29;91641;-83
2022/02/12 07:53:41;;;;;;;11.45;8.80;;;;;;;;;;4822070;29;95344;-85
2022/02/12 07:56:09;;;;;;;14.68;9.23;;;;;;;;;;4838426;29;94313;-73
2022/02/12 07:58:40;;;;;;;16.33;10.73;;;;;;;;;;4837435;29;91913;-76
2022/02/12 08:01:07;;;;;;;19.55;11.70;;;;;;;;;;4838896;29;91928;-78
2022/02/12 08:03:35;;;;;;;17.17;9.65;;;;;;;;;;4822755;29;94563;-77
2022/02/12 08:06:05;;;;;;;16.63;10.13;;;;;;;;;;4824198;29;94682;-86
2022/02/12 08:08:32;;;;;;;10.85;8.40;;;;;;;;;;4841626;29;92474;-84
2022/02/12 08:13:47;;;;;;;11.27;8.90;;;;;;;;;;4825150;29;93870;-80
2022/02/12 08:16:15;;;;;;;12.52;8.05;;;;;;;;;;4835569;29;94050;-79
2022/02/12 08:18:43;;;;;;;15.05;7.80;;;;;;;;;;4836786;29;92890;-82
2022/02/12 08:21:12;;;;;;;15.75;7.43;;;;;;;;;;4831938;29;92337;-70
2022/02/12 08:23:40;;;;;;;24.50;8.40;;;;;;;;;;4828879;29;95119;-74
2022/02/12 08:26:08;;;;;;;13.30;8.55;;;;;;;;;;4830301;29;94005;-72
2022/02/12 08:28:37;;;;;;;16.17;8.65;;;;;;;;;;4815104;29;91996;-71
2022/02/12 08:31:05;;;;;;;12.60;8.35;;;;;;;;;;4831020;29;92895;-72
2022/02/12 08:33:32;;;;;;;12.15;7.70;;;;;;;;;;4815708;29;93562;-72
2022/02/12 08:36:01;;;;;;;16.05;9.13;;;;;;;;;;4817959;29;95120;-73
2022/02/12 08:38:28;;;;;;;14.70;6.95;;;;;;;;;;4830869;29;91913;-72
2022/02/12 08:40:56;;;;;;;12.35;9.90;;;;;;;;;;4828503;29;92155;-72
2022/02/12 08:43:23;;;;;;;11.60;7.40;;;;;;;;;;4812130;29;95687;-72
2022/02/12 08:45:51;;;;;;;13.13;7.05;;;;;;;;;;4810003;29;95590;-69
2022/02/12 08:48:20;;;;;;;18.50;9.00;;;;;;;;;;4824845;29;91966;-72
2022/02/12 08:50:48;;;;;;;13.45;7.55;;;;;;;;;;4829271;29;92133;-72
2022/02/12 08:53:17;;;;;;;10.65;7.40;;;;;;;;;;4826903;29;93475;-71
2022/02/12 08:55:46;;;;;;;14.50;7.03;;;;;;;;;;4810967;29;94886;-68
2022/02/12 08:58:14;;;;;;;10.48;6.90;;;;;;;;;;4824380;29;92168;-70
2022/02/12 09:00:42;;;;;;;9.52;7.22;;;;;;;;;;4827471;29;92111;-70
2022/02/12 09:03:12;;;;;;;15.23;8.90;;;;;;;;;;4810076;29;96662;-73
2022/02/12 09:05:41;;;;;;;14.50;9.07;;;;;;;;;;4811167;29;93203;-71
2022/02/12 09:08:11;;;;;;;12.10;8.00;;;;;;;;;;4826888;29;92931;-70
2022/02/12 09:10:39;;;;;;;11.50;7.57;;;;;;;;;;4826866;29;92262;-69
2022/02/12 09:13:09;;;;;;;11.43;5.95;;;;;;;;;;4826514;29;94633;-70
2022/02/12 09:15:37;;;;;;;10.00;7.43;;;;;;;;;;4827595;29;94570;-72
2022/02/12 09:18:05;;;;;;;13.65;6.28;;;;;;;;;;4826162;29;92397;-72
2022/02/12 09:20:34;;;;;;;12.00;6.45;;;;;;;;;;4827329;29;92338;-72
2022/02/12 09:23:02;;;;;;;19.42;6.18;;;;;;;;;;4827904;29;94140;-75
2022/02/12 09:25:30;;;;;;;9.73;6.70;;;;;;;;;;4828046;29;94018;-72
2022/02/12 09:27:58;;;;;;;10.57;6.32;;;;;;;;;;4811717;29;91931;-73
2022/02/12 09:30:27;;;;;;;10.73;6.75;;;;;;;;;;4825667;29;92372;-74
2022/02/12 09:32:57;;;;;;;7.95;5.85;;;;;;;;;;4807580;29;94522;-73
2022/02/12 09:35:50;;;;;;;10.32;5.20;;;;;;;;;;4825468;29;96010;-74
2022/02/12 09:38:17;;;;;;;8.88;5.63;;;;;;;;;;4827951;29;91934;-73
2022/02/12 09:40:46;;;;;;;9.57;5.30;;;;;;;;;;4828349;29;92108;-74
2022/02/12 09:43:21;;;;;;;10.43;5.88;;;;;;;;;;4828253;29;95034;-75
2022/02/12 09:46:11;;;;;;;12.18;6.50;;;;;;;;;;4828939;29;94364;-75
2022/02/12 09:48:40;;;;;;;6.68;5.05;;;;;;;;;;4822254;29;92090;-74
2022/02/12 09:51:10;;;;;;;7.70;4.68;;;;;;;;;;4815029;29;91357;-74
2022/02/12 09:53:38;;;;;;;9.95;6.45;;;;;;;;;;4826725;29;94295;-73
2022/02/12 09:56:06;;;;;;;6.35;5.25;;;;;;;;;;4826015;29;93274;-71
2022/02/12 09:58:33;;;;;;;8.75;6.22;;;;;;;;;;4826473;29;93193;-72
2022/02/12 10:01:01;;;;;;;13.23;7.38;;;;;;;;;;4811527;29;92086;-70
2022/02/12 10:03:30;;;;;;;16.15;8.77;;;;;;;;;;4826068;29;94925;-79
2022/02/12 10:05:59;;;;;;;12.85;8.13;;;;;;;;;;4827696;29;94543;-74
2022/02/12 10:08:31;;;;;;;16.35;11.98;;;;;;;;;;4827341;29;91987;-76
2022/02/12 10:11:11;;;;;;;18.98;11.05;;;;;;;;;;4811810;29;92137;-76
2022/02/12 10:13:39;;;;;;;17.42;11.65;;;;;;;;;;4827985;29;94783;-76
2022/02/12 10:16:07;;;;;;;12.18;9.60;;;;;;;;;;4813211;29;93825;-79
2022/02/12 10:18:40;;;;;;;18.65;8.73;;;;;;;;;;4827503;29;91927;-76
2022/02/12 10:21:09;;;;;;;15.50;8.50;;;;;;;;;;4828952;29;92009;-77
2022/02/12 10:23:42;;;;;;;8.02;6.60;;;;;;;;;;4827756;29;95737;-76
2022/02/12 10:26:16;;;;;;;14.57;9.07;;;;;;;;;;4811639;29;93715;-76
2022/02/12 10:28:46;;;;;;;11.80;6.47;;;;;;;;;;4825713;29;92014;-75
2022/02/12 10:31:14;;;;;;;15.25;7.43;;;;;;;;;;4826419;29;92007;-73
2022/02/12 10:33:43;;;;;;;10.50;7.03;;;;;;;;;;4828808;29;93972;-74
2022/02/12 10:36:17;;;;;;;13.43;7.38;;;;;;;;;;4828103;29;93682;-74
2022/02/12 10:38:46;;;;;;;;;;;;;;;;;;4815259;29;91976;-76
2022/02/12 10:41:16;;;;;;;10.60;7.20;;;;;;;;;;4831529;29;91395;-76
2022/02/12 10:43:49;;;;;;;12.25;6.63;;;;;;;;;;4827893;29;92565;-76
2022/02/12 10:46:18;;;;;;;19.73;11.38;;;;;;;;;;4829095;29;94217;-76
2022/02/12 10:48:50;;;;;;;12.63;7.75;;;;;;;;;;4811955;29;92994;-75
2022/02/12 10:51:21;;;;;;;12.82;5.75;;;;;;;;;;4828373;29;92347;-72
2022/02/12 10:54:09;;;;;;;7.97;5.65;;;;;;;;;;4808794;29;95036;-72
2022/02/12 10:56:54;;;;;;;8.52;6.00;;;;;;;;;;4822345;29;93820;-71
2022/02/12 10:59:24;;;;;;;7.78;5.22;;;;;;;;;;4826981;29;93942;-72
2022/02/12 11:01:54;;;;;;;14.48;6.43;;;;;;;;;;4810073;29;92009;-72
2022/02/12 11:04:24;;;;;;;11.95;5.97;;;;;;;;;;4807433;29;95095;-72
2022/02/12 11:06:53;;;;;;;7.00;5.50;;;;;;;;;;4810448;29;94856;-71
2022/02/12 11:09:22;;;;;;;8.13;4.45;;;;;;;;;;4810755;29;92030;-71
2022/02/12 11:11:52;;;;;;;11.27;6.25;;;;;;;;;;4825641;29;92057;-72
2022/02/12 11:14:22;;;;;;;11.25;7.03;;;;;;;;;;4826601;29;94946;-73
2022/02/12 11:16:51;;;;;;;10.38;6.07;;;;;;;;;;4828891;29;95106;-73
2022/02/12 11:19:18;;;;;;;5.53;4.30;;;;;;;;;;4827586;29;91909;-72
2022/02/12 11:21:46;;;;;;;16.15;5.15;;;;;;;;;;4825701;29;91982;-74
2022/02/12 11:24:16;;;;;;;9.48;5.13;;;;;;;;;;4826591;29;94872;-74
2022/02/12 11:26:46;;;;;;;9.65;4.93;;;;;;;;;;4826740;29;94408;-73
2022/02/12 11:29:30;;;;;;;6.18;4.03;;;;;;;;;;4827426;29;91837;-72
2022/02/12 11:32:28;;;;;;;5.22;4.72;;;;;;;;;;4827557;29;91279;-73
2022/02/12 11:34:59;;;;;;;8.75;5.22;;;;;;;;;;4827426;29;94650;-73
2022/02/12 11:37:32;;;;;;;9.38;4.70;;;;;;;;;;4827133;29;94124;-72
2022/02/12 11:40:11;;;;;;;9.77;4.35;;;;;;;;;;4827407;29;92653;-73
2022/02/12 11:42:43;;;;;;;7.15;4.63;;;;;;;;;;4825855;29;92104;-73
2022/02/12 11:45:31;;;;;;;16.70;7.00;;;;;;;;;;4827694;29;95122;-73
2022/02/12 11:48:17;;;;;;;9.73;4.50;;;;;;;;;;4821364;29;94171;-72
2022/02/12 11:51:02;;;;;;;6.70;4.18;;;;;;;;;;4827501;29;92164;-72
2022/02/12 11:53:40;;;;;;;7.78;4.95;;;;;;;;;;4826833;29;92472;-75
2022/02/12 11:56:10;;;;;;;7.90;5.00;;;;;;;;;;4830797;29;94357;-75
2022/02/12 11:58:41;;;;;;;7.90;4.45;;;;;;;;;;4829963;29;93103;-75
2022/02/12 12:01:35;;;;;;;8.18;5.05;;;;;;;;;;4831354;29;91965;-75
2022/02/12 12:04:06;;;;;;;8.40;4.40;;;;;;;;;;4831489;29;91972;-75
2022/02/12 12:06:34;;;;;;;5.78;4.28;;;;;;;;;;4829833;29;96175;-76
2022/02/12 12:09:06;;;;;;;9.68;5.30;;;;;;;;;;4830064;29;95270;-73
2022/02/12 12:11:34;;;;;;;8.52;4.28;;;;;;;;;;4813862;29;91924;-72
2022/02/12 12:14:23;;;;;;;9.75;5.40;;;;;;;;;;4829666;29;91903;-72
2022/02/12 12:16:58;;;;;;;9.10;4.88;;;;;;;;;;4830177;29;94467;-73
2022/02/12 12:19:27;;;;;;;9.32;4.72;;;;;;;;;;4830575;29;93242;-73
2022/02/12 12:22:01;;;;;;;5.25;4.68;;;;;;;;;;4835851;29;92447;-73
2022/02/12 12:24:31;;;;;;;10.23;5.15;;;;;;;;;;4838652;29;91252;-73
2022/02/12 12:27:00;;;;;;;9.13;4.97;;;;;;;;;;4835387;29;95109;-73
2022/02/12 12:32:20;;;;;;;11.43;6.68;;;;;;;;;;4834669;29;92937;-73
2022/02/12 12:35:17;;;;;;;9.05;4.45;;;;;;;;;;4821682;29;92214;-73
2022/02/12 12:37:51;;;;;;;5.38;4.32;;;;;;;;;;4835063;29;94009;-72
2022/02/12 12:40:33;;;;;;;30.88;6.40;;;;;;;;;;4836168;29;94548;-73
2022/02/12 12:43:07;;;;;;;5.70;4.53;;;;;;;;;;4837290;29;91970;-72
2022/02/12 12:45:43;;;;;;;6.45;4.28;;;;;;;;;;4820079;29;92835;-73
2022/02/12 12:48:19;;;;;;;6.45;4.30;;;;;;;;;;4830779;29;94780;-72
2022/02/12 12:50:48;;;;;;;6.55;4.35;;;;;;;;;;4814121;29;93546;-72
2022/02/12 12:53:16;;;;;;;9.52;5.30;;;;;;;;;;4811846;29;91999;-72
2022/02/12 12:55:48;;;;;;;4.25;3.83;;;;;;;;;;4829966;29;91907;-72
2022/02/12 12:58:17;;;;;;;8.75;4.75;;;;;;;;;;4828133;29;95811;-72
2022/02/12 13:00:46;;;;;;;11.20;6.00;;;;;;;;;;4816196;29;92276;-72
2022/02/12 13:03:14;;;;;;;5.32;3.90;;;;;;;;;;4800987;29;92110;-72
2022/02/12 13:05:43;;;;;;;4.80;4.30;;;;;;;;;;4813038;29;92022;-72
2022/02/12 13:08:13;;;;;;;9.27;4.15;;;;;;;;;;4828080;29;93723;-72
2022/02/12 13:10:44;;;;;;;4.90;3.95;;;;;;;;;;4828727;29;93468;-71
2022/02/12 13:13:21;;;;;;;9.40;4.68;;;;;;;;;;4813165;29;92026;-72
2022/02/12 13:15:55;;;;;;;6.85;4.75;;;;;;;;;;4814044;29;91256;-71
2022/02/12 13:18:33;;;;;;;6.75;4.60;;;;;;;;;;4828973;29;94139;-71
2022/02/12 13:21:16;;;;;;;7.00;4.75;;;;;;;;;;4825741;29;94544;-71
2022/02/12 13:23:47;;;;;;;7.22;4.35;;;;;;;;;;4823371;29;93071;-71
2022/02/12 13:26:22;;;;;;;7.18;4.45;;;;;;;;;;4792837;29;92031;-71
2022/02/12 13:28:51;;;;;;;8.35;4.07;;;;;;;;;;4811227;29;92027;-71
2022/02/12 13:31:23;;;;;;;8.00;4.28;;;;;;;;;;4825198;29;94244;-71
2022/02/12 13:34:00;;;;;;;7.00;3.78;;;;;;;;;;4828915;29;91935;-72
2022/02/12 13:36:30;;;;;;;4.88;4.00;;;;;;;;;;4828233;29;91970;-71
2022/02/12 13:39:05;;;;;;;9.23;4.70;;;;;;;;;;4797041;29;95527;-71
2022/02/12 13:41:41;;;;;;;8.85;3.78;;;;;;;;;;4828423;29;94732;-72
2022/02/12 13:44:09;;;;;;;8.75;4.88;;;;;;;;;;4826067;29;92135;-70
2022/02/12 13:46:41;;;;;;;4.72;4.20;;;;;;;;;;4810233;29;92222;-71
2022/02/12 13:49:18;;;;;;;10.32;4.90;;;;;;;;;;4812698;29;95096;-71
2022/02/12 13:52:00;;;;;;;6.68;4.80;;;;;;;;;;4826532;29;96120;-71
2022/02/12 13:54:29;;;;;;;9.50;4.97;;;;;;;;;;4826718;29;91979;-70
2022/02/12 13:56:59;;;;;;;6.13;3.95;;;;;;;;;;4826576;29;92709;-71
2022/02/12 13:59:26;;;;;;;8.35;4.93;;;;;;;;;;4825270;29;95343;-71
2022/02/12 14:01:55;;;;;;;5.10;3.88;;;;;;;;;;4825929;29;94537;-71
2022/02/12 14:04:26;;;;;;;6.13;4.30;;;;;;;;;;4827619;29;92932;-70
2022/02/12 14:06:53;;;;;;;5.38;3.95;;;;;;;;;;4827586;29;91320;-70
2022/02/12 14:09:23;;;;;;;7.10;4.38;;;;;;;;;;4825654;29;94432;-70
2022/02/12 14:11:51;;;;;;;6.95;4.88;;;;;;;;;;4827185;29;94890;-70
2022/02/12 14:14:19;;;;;;;6.93;4.68;;;;;;;;;;4809379;29;92744;-70
2022/02/12 14:16:47;;;;;;;6.80;4.05;;;;;;;;;;4813048;29;93611;-70
2022/02/12 14:19:16;;;;;;;7.28;4.68;;;;;;;;;;4826147;29;94607;-70
2022/02/12 14:21:44;;;;;;;6.85;4.40;;;;;;;;;;4827111;29;94370;-70
2022/02/12 14:24:11;;;;;;;7.68;4.18;;;;;;;;;;4826789;29;92344;-70
2022/02/12 14:26:39;;;;;;;6.13;5.05;;;;;;;;;;4825955;29;91944;-70
2022/02/12 14:29:08;;;;;;;5.63;3.55;;;;;;;;;;4810853;29;94857;-70
2022/02/12 14:31:36;;;;;;;3.30;3.00;;;;;;;;;;4825108;29;94224;-70
2022/02/12 14:34:04;;;;;;;9.45;4.38;;;;;;;;;;4826988;29;91982;-70
2022/02/12 14:36:31;;;;;;;7.25;4.55;;;;;;;;;;4825423;29;91964;-72
2022/02/12 14:39:00;;;;;;;8.93;5.68;;;;;;;;;;4807069;29;95323;-73
2022/02/12 14:41:27;;;;;;;5.65;3.88;;;;;;;;;;4808093;29;94773;-73
2022/02/12 14:43:55;;;;;;;7.55;5.07;;;;;;;;;;4825331;29;92001;-73
2022/02/12 14:46:23;;;;;;;6.45;5.43;;;;;;;;;;4828958;29;91995;-73
2022/02/12 14:48:50;;;;;;;8.38;3.65;;;;;;;;;;4828607;29;95150;-73
2022/02/12 14:51:19;;;;;;;6.25;4.35;;;;;;;;;;4828379;29;94014;-73
2022/02/12 14:53:53;;;;;;;9.30;4.95;;;;;;;;;;4829049;29;91870;-73
2022/02/12 14:56:20;;;;;;;10.48;6.07;;;;;;;;;;4829323;29;91313;-73
2022/02/12 14:58:48;;;;;;;5.30;3.70;;;;;;;;;;4828023;29;93572;-73
2022/02/12 15:01:17;;;;;;;5.55;4.43;;;;;;;;;;4826112;29;94380;-73